sensor_id;sensor_type;location;lat;lon;timestamp;P1;durP1;ratioP1;P2;durP2;ratioP2
20784;SDS011;10552;45.818;12.896;2022-07-01T00:00:37;17.62;;;15.57;;
20784;SDS011;10552;45.818;12.896;2022-07-01T00:03:27;16.95;;;14.65;;
20784;SDS011;10552;45.818;12.896;2022-07-01T00:06:10;20.65;;;15.98;;
20784;SDS011;10552;45.818;12.896;2022-07-01T00:08:54;19.35;;;13.27;;
20784;SDS011;10552;45.818;12.896;2022-07-01T00:11:38;14.63;;;13.13;;
20784;SDS011;10552;45.818;12.896;2022-07-01T00:14:27;18.80;;;13.85;;
20784;SDS011;10552;45.818;12.896;2022-07-01T00:17:10;18.08;;;13.43;;
20784;SDS011;10552;45.818;12.896;2022-07-01T00:19:54;15.15;;;12.90;;
20784;SDS011;10552;45.818;12.896;2022-07-01T00:22:38;16.62;;;12.88;;
20784;SDS011;10552;45.818;12.896;2022-07-01T00:25:22;14.77;;;11.55;;
20784;SDS011;10552;45.818;12.896;2022-07-01T00:28:06;17.48;;;12.15;;
20784;SDS011;10552;45.818;12.896;2022-07-01T00:30:56;17.25;;;12.02;;
20784;SDS011;10552;45.818;12.896;2022-07-01T00:33:41;17.80;;;13.02;;
20784;SDS011;10552;45.818;12.896;2022-07-01T00:36:24;18.60;;;15.32;;
20784;SDS011;10552;45.818;12.896;2022-07-01T00:39:08;23.15;;;15.80;;
20784;SDS011;10552;45.818;12.896;2022-07-01T00:41:58;22.20;;;15.00;;
20784;SDS011;10552;45.818;12.896;2022-07-01T00:44:48;20.80;;;16.20;;
20784;SDS011;10552;45.818;12.896;2022-07-01T00:47:32;18.58;;;14.85;;
20784;SDS011;10552;45.818;12.896;2022-07-01T00:50:15;21.27;;;15.73;;
20784;SDS011;10552;45.818;12.896;2022-07-01T00:52:58;20.25;;;16.37;;
20784;SDS011;10552;45.818;12.896;2022-07-01T00:55:42;20.12;;;15.60;;
20784;SDS011;10552;45.818;12.896;2022-07-01T00:58:34;17.75;;;12.93;;
20784;SDS011;10552;45.818;12.896;2022-07-01T01:01:18;19.05;;;15.43;;
20784;SDS011;10552;45.818;12.896;2022-07-01T01:04:02;19.35;;;15.38;;
20784;SDS011;10552;45.818;12.896;2022-07-01T01:06:47;24.10;;;15.73;;
20784;SDS011;10552;45.818;12.896;2022-07-01T01:09:32;18.33;;;15.55;;
20784;SDS011;10552;45.818;12.896;2022-07-01T01:12:16;22.45;;;16.52;;
20784;SDS011;10552;45.818;12.896;2022-07-01T01:15:00;24.67;;;17.50;;
20784;SDS011;10552;45.818;12.896;2022-07-01T01:17:43;20.15;;;17.27;;
20784;SDS011;10552;45.818;12.896;2022-07-01T01:20:31;23.35;;;18.62;;
20784;SDS011;10552;45.818;12.896;2022-07-01T01:23:11;29.83;;;19.05;;
20784;SDS011;10552;45.818;12.896;2022-07-01T01:25:56;23.92;;;19.45;;
20784;SDS011;10552;45.818;12.896;2022-07-01T01:28:39;25.02;;;20.65;;
20784;SDS011;10552;45.818;12.896;2022-07-01T01:31:28;23.62;;;20.75;;
20784;SDS011;10552;45.818;12.896;2022-07-01T01:34:11;25.45;;;20.60;;
20784;SDS011;10552;45.818;12.896;2022-07-01T01:36:54;25.52;;;20.42;;
20784;SDS011;10552;45.818;12.896;2022-07-01T01:39:37;23.40;;;20.75;;
20784;SDS011;10552;45.818;12.896;2022-07-01T01:42:21;25.27;;;20.98;;
20784;SDS011;10552;45.818;12.896;2022-07-01T01:45:05;23.80;;;20.67;;
20784;SDS011;10552;45.818;12.896;2022-07-01T01:47:49;21.30;;;18.98;;
20784;SDS011;10552;45.818;12.896;2022-07-01T01:50:32;21.65;;;19.37;;
20784;SDS011;10552;45.818;12.896;2022-07-01T01:53:16;24.23;;;20.17;;
20784;SDS011;10552;45.818;12.896;2022-07-01T01:56:02;22.42;;;19.73;;
20784;SDS011;10552;45.818;12.896;2022-07-01T01:58:46;23.23;;;20.00;;
20784;SDS011;10552;45.818;12.896;2022-07-01T02:01:30;24.65;;;20.30;;
20784;SDS011;10552;45.818;12.896;2022-07-01T02:04:14;23.62;;;19.83;;
20784;SDS011;10552;45.818;12.896;2022-07-01T02:06:57;24.15;;;20.25;;
20784;SDS011;10552;45.818;12.896;2022-07-01T02:09:42;23.58;;;19.60;;
20784;SDS011;10552;45.818;12.896;2022-07-01T02:12:26;21.80;;;19.50;;
20784;SDS011;10552;45.818;12.896;2022-07-01T02:15:09;22.45;;;19.30;;
20784;SDS011;10552;45.818;12.896;2022-07-01T02:17:53;24.70;;;19.20;;
20784;SDS011;10552;45.818;12.896;2022-07-01T02:20:37;22.13;;;19.75;;
20784;SDS011;10552;45.818;12.896;2022-07-01T02:23:27;23.50;;;19.10;;
20784;SDS011;10552;45.818;12.896;2022-07-01T02:26:13;22.42;;;18.02;;
20784;SDS011;10552;45.818;12.896;2022-07-01T02:28:57;20.52;;;17.80;;
20784;SDS011;10552;45.818;12.896;2022-07-01T02:31:40;20.35;;;16.85;;
20784;SDS011;10552;45.818;12.896;2022-07-01T02:34:25;19.48;;;16.70;;
20784;SDS011;10552;45.818;12.896;2022-07-01T02:37:09;16.87;;;14.73;;
20784;SDS011;10552;45.818;12.896;2022-07-01T02:39:53;16.62;;;14.68;;
20784;SDS011;10552;45.818;12.896;2022-07-01T02:42:37;20.75;;;14.70;;
20784;SDS011;10552;45.818;12.896;2022-07-01T02:45:30;17.08;;;11.75;;
20784;SDS011;10552;45.818;12.896;2022-07-01T02:48:14;15.80;;;13.82;;
20784;SDS011;10552;45.818;12.896;2022-07-01T02:50:58;17.45;;;14.35;;
20784;SDS011;10552;45.818;12.896;2022-07-01T02:53:41;17.23;;;13.60;;
20784;SDS011;10552;45.818;12.896;2022-07-01T02:56:31;15.80;;;14.05;;
20784;SDS011;10552;45.818;12.896;2022-07-01T02:59:14;16.52;;;14.00;;
20784;SDS011;10552;45.818;12.896;2022-07-01T03:01:58;18.98;;;14.85;;
20784;SDS011;10552;45.818;12.896;2022-07-01T03:04:41;20.05;;;14.90;;
20784;SDS011;10552;45.818;12.896;2022-07-01T03:07:25;17.48;;;14.13;;
20784;SDS011;10552;45.818;12.896;2022-07-01T03:10:09;18.30;;;13.50;;
20784;SDS011;10552;45.818;12.896;2022-07-01T03:12:53;22.23;;;14.25;;
20784;SDS011;10552;45.818;12.896;2022-07-01T03:15:37;21.50;;;14.77;;
20784;SDS011;10552;45.818;12.896;2022-07-01T03:18:21;16.83;;;14.18;;
20784;SDS011;10552;45.818;12.896;2022-07-01T03:21:04;19.75;;;14.52;;
20784;SDS011;10552;45.818;12.896;2022-07-01T03:23:54;17.27;;;14.30;;
20784;SDS011;10552;45.818;12.896;2022-07-01T03:26:37;19.87;;;14.52;;
20784;SDS011;10552;45.818;12.896;2022-07-01T03:29:21;15.52;;;13.85;;
20784;SDS011;10552;45.818;12.896;2022-07-01T03:32:14;12.02;;;10.75;;
20784;SDS011;10552;45.818;12.896;2022-07-01T03:35:07;16.23;;;10.98;;
20784;SDS011;10552;45.818;12.896;2022-07-01T03:38:05;16.92;;;12.43;;
20784;SDS011;10552;45.818;12.896;2022-07-01T03:40:50;18.30;;;13.30;;
20784;SDS011;10552;45.818;12.896;2022-07-01T03:43:34;22.83;;;14.18;;
20784;SDS011;10552;45.818;12.896;2022-07-01T03:46:18;20.23;;;12.93;;
20784;SDS011;10552;45.818;12.896;2022-07-01T03:49:02;17.08;;;12.70;;
20784;SDS011;10552;45.818;12.896;2022-07-01T03:51:45;17.70;;;12.93;;
20784;SDS011;10552;45.818;12.896;2022-07-01T03:54:29;17.42;;;12.20;;
20784;SDS011;10552;45.818;12.896;2022-07-01T03:57:12;15.20;;;11.75;;
20784;SDS011;10552;45.818;12.896;2022-07-01T03:59:56;13.45;;;11.38;;
20784;SDS011;10552;45.818;12.896;2022-07-01T04:02:40;16.50;;;11.48;;
20784;SDS011;10552;45.818;12.896;2022-07-01T04:05:23;17.15;;;10.90;;
20784;SDS011;10552;45.818;12.896;2022-07-01T04:08:06;18.50;;;11.25;;
20784;SDS011;10552;45.818;12.896;2022-07-01T04:10:49;18.75;;;10.75;;
20784;SDS011;10552;45.818;12.896;2022-07-01T04:13:33;15.55;;;11.10;;
20784;SDS011;10552;45.818;12.896;2022-07-01T04:16:17;15.45;;;10.30;;
20784;SDS011;10552;45.818;12.896;2022-07-01T04:19:00;15.63;;;11.20;;
20784;SDS011;10552;45.818;12.896;2022-07-01T04:21:44;18.55;;;10.73;;
20784;SDS011;10552;45.818;12.896;2022-07-01T04:24:33;14.77;;;9.48;;
20784;SDS011;10552;45.818;12.896;2022-07-01T04:27:17;13.62;;;9.70;;
20784;SDS011;10552;45.818;12.896;2022-07-01T04:30:01;13.68;;;9.30;;
20784;SDS011;10552;45.818;12.896;2022-07-01T04:32:44;12.50;;;9.40;;
20784;SDS011;10552;45.818;12.896;2022-07-01T04:35:27;15.70;;;9.82;;
20784;SDS011;10552;45.818;12.896;2022-07-01T04:38:12;18.33;;;9.40;;
20784;SDS011;10552;45.818;12.896;2022-07-01T04:41:02;13.32;;;9.18;;
20784;SDS011;10552;45.818;12.896;2022-07-01T04:43:54;13.95;;;9.30;;
20784;SDS011;10552;45.818;12.896;2022-07-01T04:46:44;13.18;;;8.55;;
20784;SDS011;10552;45.818;12.896;2022-07-01T04:49:28;13.82;;;9.13;;
20784;SDS011;10552;45.818;12.896;2022-07-01T04:52:16;13.20;;;9.43;;
20784;SDS011;10552;45.818;12.896;2022-07-01T04:55:07;15.15;;;9.93;;
20784;SDS011;10552;45.818;12.896;2022-07-01T04:57:52;12.88;;;9.20;;
20784;SDS011;10552;45.818;12.896;2022-07-01T05:00:44;15.23;;;9.30;;
20784;SDS011;10552;45.818;12.896;2022-07-01T05:03:31;13.88;;;9.13;;
20784;SDS011;10552;45.818;12.896;2022-07-01T05:06:14;14.60;;;8.95;;
20784;SDS011;10552;45.818;12.896;2022-07-01T05:08:58;14.15;;;8.82;;
20784;SDS011;10552;45.818;12.896;2022-07-01T05:11:42;14.48;;;9.20;;
20784;SDS011;10552;45.818;12.896;2022-07-01T05:14:25;13.43;;;8.73;;
20784;SDS011;10552;45.818;12.896;2022-07-01T05:17:08;15.38;;;8.20;;
20784;SDS011;10552;45.818;12.896;2022-07-01T05:19:52;13.27;;;8.10;;
20784;SDS011;10552;45.818;12.896;2022-07-01T05:22:53;17.85;;;8.50;;
20784;SDS011;10552;45.818;12.896;2022-07-01T05:25:51;13.40;;;6.97;;
20784;SDS011;10552;45.818;12.896;2022-07-01T05:28:37;11.57;;;7.62;;
20784;SDS011;10552;45.818;12.896;2022-07-01T05:31:24;12.15;;;7.40;;
20784;SDS011;10552;45.818;12.896;2022-07-01T05:34:23;9.88;;;6.15;;
20784;SDS011;10552;45.818;12.896;2022-07-01T05:37:12;12.40;;;7.47;;
20784;SDS011;10552;45.818;12.896;2022-07-01T05:39:56;11.95;;;7.28;;
20784;SDS011;10552;45.818;12.896;2022-07-01T05:42:39;10.40;;;7.47;;
20784;SDS011;10552;45.818;12.896;2022-07-01T05:45:23;14.23;;;6.95;;
20784;SDS011;10552;45.818;12.896;2022-07-01T05:48:07;11.07;;;7.07;;
20784;SDS011;10552;45.818;12.896;2022-07-01T05:50:50;12.48;;;6.60;;
20784;SDS011;10552;45.818;12.896;2022-07-01T05:53:34;11.15;;;7.03;;
20784;SDS011;10552;45.818;12.896;2022-07-01T05:56:17;12.05;;;6.75;;
20784;SDS011;10552;45.818;12.896;2022-07-01T05:59:00;12.65;;;6.47;;
20784;SDS011;10552;45.818;12.896;2022-07-01T06:01:45;11.50;;;6.15;;
20784;SDS011;10552;45.818;12.896;2022-07-01T06:04:31;10.68;;;6.50;;
20784;SDS011;10552;45.818;12.896;2022-07-01T06:07:14;12.05;;;6.18;;
20784;SDS011;10552;45.818;12.896;2022-07-01T06:09:57;10.15;;;6.20;;
20784;SDS011;10552;45.818;12.896;2022-07-01T06:12:48;10.65;;;6.18;;
20784;SDS011;10552;45.818;12.896;2022-07-01T06:15:32;13.35;;;6.10;;
20784;SDS011;10552;45.818;12.896;2022-07-01T06:18:15;9.05;;;5.45;;
20784;SDS011;10552;45.818;12.896;2022-07-01T06:20:58;8.73;;;5.37;;
20784;SDS011;10552;45.818;12.896;2022-07-01T06:23:48;10.65;;;5.43;;
20784;SDS011;10552;45.818;12.896;2022-07-01T06:26:32;9.52;;;5.53;;
20784;SDS011;10552;45.818;12.896;2022-07-01T06:29:16;9.57;;;5.30;;
20784;SDS011;10552;45.818;12.896;2022-07-01T06:32:00;14.05;;;5.07;;
20784;SDS011;10552;45.818;12.896;2022-07-01T06:34:44;10.10;;;5.30;;
20784;SDS011;10552;45.818;12.896;2022-07-01T06:37:28;10.27;;;4.90;;
20784;SDS011;10552;45.818;12.896;2022-07-01T06:40:11;13.65;;;5.82;;
20784;SDS011;10552;45.818;12.896;2022-07-01T06:42:55;7.18;;;5.10;;
20784;SDS011;10552;45.818;12.896;2022-07-01T06:45:44;12.20;;;5.62;;
20784;SDS011;10552;45.818;12.896;2022-07-01T06:48:27;11.27;;;5.62;;
20784;SDS011;10552;45.818;12.896;2022-07-01T06:51:11;12.35;;;5.45;;
20784;SDS011;10552;45.818;12.896;2022-07-01T06:53:55;12.63;;;5.30;;
20784;SDS011;10552;45.818;12.896;2022-07-01T06:56:39;12.82;;;5.35;;
20784;SDS011;10552;45.818;12.896;2022-07-01T06:59:23;11.43;;;5.65;;
20784;SDS011;10552;45.818;12.896;2022-07-01T07:02:07;9.75;;;5.30;;
20784;SDS011;10552;45.818;12.896;2022-07-01T07:04:53;11.30;;;5.75;;
20784;SDS011;10552;45.818;12.896;2022-07-01T07:07:36;11.25;;;5.28;;
20784;SDS011;10552;45.818;12.896;2022-07-01T07:10:20;8.82;;;4.90;;
20784;SDS011;10552;45.818;12.896;2022-07-01T07:13:03;9.15;;;5.25;;
20784;SDS011;10552;45.818;12.896;2022-07-01T07:15:53;11.80;;;4.97;;
20784;SDS011;10552;45.818;12.896;2022-07-01T07:18:37;8.93;;;4.90;;
20784;SDS011;10552;45.818;12.896;2022-07-01T07:21:21;10.05;;;5.25;;
20784;SDS011;10552;45.818;12.896;2022-07-01T07:24:05;9.15;;;4.72;;
20784;SDS011;10552;45.818;12.896;2022-07-01T07:26:50;12.32;;;4.32;;
20784;SDS011;10552;45.818;12.896;2022-07-01T07:29:33;11.40;;;4.50;;
20784;SDS011;10552;45.818;12.896;2022-07-01T07:32:24;8.80;;;4.55;;
20784;SDS011;10552;45.818;12.896;2022-07-01T07:35:08;9.30;;;4.30;;
20784;SDS011;10552;45.818;12.896;2022-07-01T07:37:52;10.30;;;4.10;;
20784;SDS011;10552;45.818;12.896;2022-07-01T07:40:35;6.65;;;4.10;;
20784;SDS011;10552;45.818;12.896;2022-07-01T07:43:19;7.18;;;3.40;;
20784;SDS011;10552;45.818;12.896;2022-07-01T07:46:05;9.02;;;3.47;;
20784;SDS011;10552;45.818;12.896;2022-07-01T07:48:54;9.02;;;3.30;;
20784;SDS011;10552;45.818;12.896;2022-07-01T07:51:37;7.95;;;3.65;;
20784;SDS011;10552;45.818;12.896;2022-07-01T07:54:21;7.57;;;3.55;;
20784;SDS011;10552;45.818;12.896;2022-07-01T07:57:05;7.60;;;3.30;;
20784;SDS011;10552;45.818;12.896;2022-07-01T07:59:48;8.60;;;3.22;;
20784;SDS011;10552;45.818;12.896;2022-07-01T08:02:35;6.22;;;3.20;;
20784;SDS011;10552;45.818;12.896;2022-07-01T08:05:18;6.62;;;3.03;;
20784;SDS011;10552;45.818;12.896;2022-07-01T08:08:01;7.62;;;3.20;;
20784;SDS011;10552;45.818;12.896;2022-07-01T08:10:51;6.53;;;3.22;;
20784;SDS011;10552;45.818;12.896;2022-07-01T08:13:41;5.60;;;3.10;;
20784;SDS011;10552;45.818;12.896;2022-07-01T08:16:24;9.63;;;3.70;;
20784;SDS011;10552;45.818;12.896;2022-07-01T08:19:08;11.05;;;3.70;;
20784;SDS011;10552;45.818;12.896;2022-07-01T08:21:52;5.65;;;3.37;;
20784;SDS011;10552;45.818;12.896;2022-07-01T08:24:35;7.62;;;3.58;;
20784;SDS011;10552;45.818;12.896;2022-07-01T08:27:18;7.20;;;3.10;;
20784;SDS011;10552;45.818;12.896;2022-07-01T08:30:02;4.93;;;3.00;;
20784;SDS011;10552;45.818;12.896;2022-07-01T08:32:45;6.93;;;3.20;;
20784;SDS011;10552;45.818;12.896;2022-07-01T08:35:29;5.28;;;3.35;;
20784;SDS011;10552;45.818;12.896;2022-07-01T08:38:12;7.85;;;3.30;;
20784;SDS011;10552;45.818;12.896;2022-07-01T08:40:57;5.20;;;3.00;;
20784;SDS011;10552;45.818;12.896;2022-07-01T08:43:40;11.15;;;3.42;;
20784;SDS011;10552;45.818;12.896;2022-07-01T08:46:23;5.18;;;2.80;;
20784;SDS011;10552;45.818;12.896;2022-07-01T08:49:06;6.43;;;3.12;;
20784;SDS011;10552;45.818;12.896;2022-07-01T08:51:51;10.23;;;3.37;;
20784;SDS011;10552;45.818;12.896;2022-07-01T08:54:37;7.47;;;3.67;;
20784;SDS011;10552;45.818;12.896;2022-07-01T08:57:26;6.07;;;3.12;;
20784;SDS011;10552;45.818;12.896;2022-07-01T09:00:10;7.47;;;3.20;;
20784;SDS011;10552;45.818;12.896;2022-07-01T09:03:01;6.18;;;3.00;;
20784;SDS011;10552;45.818;12.896;2022-07-01T09:05:49;6.50;;;3.17;;
20784;SDS011;10552;45.818;12.896;2022-07-01T09:08:31;6.78;;;3.10;;
20784;SDS011;10552;45.818;12.896;2022-07-01T09:11:18;7.12;;;3.20;;
20784;SDS011;10552;45.818;12.896;2022-07-01T09:14:04;6.22;;;3.53;;
20784;SDS011;10552;45.818;12.896;2022-07-01T09:16:49;10.82;;;4.07;;
20784;SDS011;10552;45.818;12.896;2022-07-01T09:19:34;10.80;;;3.90;;
20784;SDS011;10552;45.818;12.896;2022-07-01T09:22:22;6.97;;;3.42;;
20784;SDS011;10552;45.818;12.896;2022-07-01T09:25:12;9.93;;;3.70;;
20784;SDS011;10552;45.818;12.896;2022-07-01T09:28:02;8.82;;;3.30;;
20784;SDS011;10552;45.818;12.896;2022-07-01T09:30:50;6.70;;;3.12;;
20784;SDS011;10552;45.818;12.896;2022-07-01T09:33:32;7.10;;;3.15;;
20784;SDS011;10552;45.818;12.896;2022-07-01T09:36:15;7.68;;;2.97;;
20784;SDS011;10552;45.818;12.896;2022-07-01T09:39:02;6.47;;;2.70;;
20784;SDS011;10552;45.818;12.896;2022-07-01T09:41:44;7.20;;;2.60;;
20784;SDS011;10552;45.818;12.896;2022-07-01T09:44:27;7.10;;;2.90;;
20784;SDS011;10552;45.818;12.896;2022-07-01T09:47:10;6.00;;;2.70;;
20784;SDS011;10552;45.818;12.896;2022-07-01T09:49:54;7.18;;;2.70;;
20784;SDS011;10552;45.818;12.896;2022-07-01T09:52:37;7.50;;;2.70;;
20784;SDS011;10552;45.818;12.896;2022-07-01T09:55:22;6.85;;;2.72;;
20784;SDS011;10552;45.818;12.896;2022-07-01T09:58:06;11.52;;;3.25;;
20784;SDS011;10552;45.818;12.896;2022-07-01T10:00:55;9.32;;;3.45;;
20784;SDS011;10552;45.818;12.896;2022-07-01T10:03:40;12.20;;;3.40;;
20784;SDS011;10552;45.818;12.896;2022-07-01T10:06:42;9.05;;;3.45;;
20784;SDS011;10552;45.818;12.896;2022-07-01T10:09:28;10.25;;;3.33;;
20784;SDS011;10552;45.818;12.896;2022-07-01T10:12:23;10.50;;;3.45;;
20784;SDS011;10552;45.818;12.896;2022-07-01T10:15:04;10.27;;;3.42;;
20784;SDS011;10552;45.818;12.896;2022-07-01T10:17:49;11.90;;;3.78;;
20784;SDS011;10552;45.818;12.896;2022-07-01T10:20:31;8.40;;;3.47;;
20784;SDS011;10552;45.818;12.896;2022-07-01T10:23:22;10.90;;;4.15;;
20784;SDS011;10552;45.818;12.896;2022-07-01T10:26:06;9.68;;;3.83;;
20784;SDS011;10552;45.818;12.896;2022-07-01T10:28:49;9.25;;;3.87;;
20784;SDS011;10552;45.818;12.896;2022-07-01T10:31:36;13.57;;;4.43;;
20784;SDS011;10552;45.818;12.896;2022-07-01T10:34:21;10.73;;;4.10;;
20784;SDS011;10552;45.818;12.896;2022-07-01T10:37:06;9.85;;;4.30;;
20784;SDS011;10552;45.818;12.896;2022-07-01T10:39:57;12.85;;;4.35;;
20784;SDS011;10552;45.818;12.896;2022-07-01T10:45:42;16.87;;;4.90;;
20784;SDS011;10552;45.818;12.896;2022-07-01T10:48:30;9.80;;;4.00;;
20784;SDS011;10552;45.818;12.896;2022-07-01T10:51:14;10.25;;;3.83;;
20784;SDS011;10552;45.818;12.896;2022-07-01T10:54:09;10.40;;;4.32;;
20784;SDS011;10552;45.818;12.896;2022-07-01T10:56:54;11.60;;;4.78;;
20784;SDS011;10552;45.818;12.896;2022-07-01T10:59:49;12.13;;;4.90;;
20784;SDS011;10552;45.818;12.896;2022-07-01T11:02:33;15.52;;;4.97;;
20784;SDS011;10552;45.818;12.896;2022-07-01T11:05:17;13.60;;;5.20;;
20784;SDS011;10552;45.818;12.896;2022-07-01T11:08:14;8.60;;;4.32;;
20784;SDS011;10552;45.818;12.896;2022-07-01T11:11:04;14.75;;;5.75;;
20784;SDS011;10552;45.818;12.896;2022-07-01T11:13:48;18.08;;;5.93;;
20784;SDS011;10552;45.818;12.896;2022-07-01T11:16:31;14.00;;;5.45;;
20784;SDS011;10552;45.818;12.896;2022-07-01T11:19:17;14.98;;;5.32;;
20784;SDS011;10552;45.818;12.896;2022-07-01T11:21:57;16.40;;;5.93;;
20784;SDS011;10552;45.818;12.896;2022-07-01T11:24:42;14.63;;;5.30;;
20784;SDS011;10552;45.818;12.896;2022-07-01T11:27:25;12.32;;;4.87;;
20784;SDS011;10552;45.818;12.896;2022-07-01T11:30:10;14.40;;;5.30;;
20784;SDS011;10552;45.818;12.896;2022-07-01T11:32:57;12.73;;;5.10;;
20784;SDS011;10552;45.818;12.896;2022-07-01T11:35:40;15.70;;;5.62;;
20784;SDS011;10552;45.818;12.896;2022-07-01T11:38:29;14.75;;;5.40;;
20784;SDS011;10552;45.818;12.896;2022-07-01T11:41:20;13.05;;;5.35;;
20784;SDS011;10552;45.818;12.896;2022-07-01T11:44:03;16.62;;;6.15;;
20784;SDS011;10552;45.818;12.896;2022-07-01T11:46:56;17.37;;;6.20;;
20784;SDS011;10552;45.818;12.896;2022-07-01T11:49:44;18.65;;;6.22;;
20784;SDS011;10552;45.818;12.896;2022-07-01T11:52:27;17.33;;;6.40;;
20784;SDS011;10552;45.818;12.896;2022-07-01T11:55:12;13.80;;;6.43;;
20784;SDS011;10552;45.818;12.896;2022-07-01T11:57:56;17.25;;;5.57;;
20784;SDS011;10552;45.818;12.896;2022-07-01T12:00:39;17.05;;;6.25;;
20784;SDS011;10552;45.818;12.896;2022-07-01T12:03:30;15.57;;;6.32;;
20784;SDS011;10552;45.818;12.896;2022-07-01T12:06:13;17.30;;;6.35;;
20784;SDS011;10552;45.818;12.896;2022-07-01T12:09:02;21.20;;;7.30;;
20784;SDS011;10552;45.818;12.896;2022-07-01T12:11:47;17.90;;;6.50;;
20784;SDS011;10552;45.818;12.896;2022-07-01T12:14:32;18.15;;;6.37;;
20784;SDS011;10552;45.818;12.896;2022-07-01T12:17:15;17.37;;;6.35;;
20784;SDS011;10552;45.818;12.896;2022-07-01T12:19:57;13.62;;;6.12;;
20784;SDS011;10552;45.818;12.896;2022-07-01T12:22:40;18.50;;;6.22;;
20784;SDS011;10552;45.818;12.896;2022-07-01T12:25:24;21.48;;;6.20;;
20784;SDS011;10552;45.818;12.896;2022-07-01T12:28:08;17.02;;;5.53;;
20784;SDS011;10552;45.818;12.896;2022-07-01T12:31:00;15.00;;;5.55;;
20784;SDS011;10552;45.818;12.896;2022-07-01T12:33:48;20.73;;;6.40;;
20784;SDS011;10552;45.818;12.896;2022-07-01T12:36:26;16.85;;;6.15;;
20784;SDS011;10552;45.818;12.896;2022-07-01T12:39:09;18.33;;;6.12;;
20784;SDS011;10552;45.818;12.896;2022-07-01T12:42:00;17.70;;;6.55;;
20784;SDS011;10552;45.818;12.896;2022-07-01T12:44:44;18.75;;;6.32;;
20784;SDS011;10552;45.818;12.896;2022-07-01T12:47:32;19.40;;;6.72;;
20784;SDS011;10552;45.818;12.896;2022-07-01T12:50:17;18.45;;;6.05;;
20784;SDS011;10552;45.818;12.896;2022-07-01T12:53:06;15.40;;;5.97;;
20784;SDS011;10552;45.818;12.896;2022-07-01T12:55:52;18.00;;;5.85;;
20784;SDS011;10552;45.818;12.896;2022-07-01T12:58:35;19.15;;;6.30;;
20784;SDS011;10552;45.818;12.896;2022-07-01T13:01:18;14.20;;;5.57;;
20784;SDS011;10552;45.818;12.896;2022-07-01T13:04:02;14.57;;;5.60;;
20784;SDS011;10552;45.818;12.896;2022-07-01T13:06:45;16.95;;;5.53;;
20784;SDS011;10552;45.818;12.896;2022-07-01T13:09:35;16.23;;;5.72;;
20784;SDS011;10552;45.818;12.896;2022-07-01T13:12:18;20.10;;;6.18;;
20784;SDS011;10552;45.818;12.896;2022-07-01T13:15:02;16.45;;;5.57;;
20784;SDS011;10552;45.818;12.896;2022-07-01T13:17:46;17.37;;;6.07;;
20784;SDS011;10552;45.818;12.896;2022-07-01T13:20:30;15.25;;;5.90;;
20784;SDS011;10552;45.818;12.896;2022-07-01T13:23:14;17.23;;;5.40;;
20784;SDS011;10552;45.818;12.896;2022-07-01T13:26:04;16.62;;;5.53;;
20784;SDS011;10552;45.818;12.896;2022-07-01T13:28:48;16.65;;;5.40;;
20784;SDS011;10552;45.818;12.896;2022-07-01T13:31:38;21.25;;;5.97;;
20784;SDS011;10552;45.818;12.896;2022-07-01T13:34:21;17.52;;;5.47;;
20784;SDS011;10552;45.818;12.896;2022-07-01T13:37:05;15.07;;;5.20;;
20784;SDS011;10552;45.818;12.896;2022-07-01T13:39:49;14.73;;;5.37;;
20784;SDS011;10552;45.818;12.896;2022-07-01T13:42:33;17.35;;;5.10;;
20784;SDS011;10552;45.818;12.896;2022-07-01T13:45:16;10.90;;;4.32;;
20784;SDS011;10552;45.818;12.896;2022-07-01T13:48:08;14.20;;;4.87;;
20784;SDS011;10552;45.818;12.896;2022-07-01T13:50:52;13.10;;;4.60;;
20784;SDS011;10552;45.818;12.896;2022-07-01T13:53:41;11.30;;;4.15;;
20784;SDS011;10552;45.818;12.896;2022-07-01T13:56:30;11.07;;;4.20;;
20784;SDS011;10552;45.818;12.896;2022-07-01T13:59:17;9.85;;;3.92;;
20784;SDS011;10552;45.818;12.896;2022-07-01T14:02:02;14.30;;;4.30;;
20784;SDS011;10552;45.818;12.896;2022-07-01T14:04:46;13.93;;;4.87;;
20784;SDS011;10552;45.818;12.896;2022-07-01T14:07:29;12.18;;;4.10;;
20784;SDS011;10552;45.818;12.896;2022-07-01T14:10:12;15.43;;;4.37;;
20784;SDS011;10552;45.818;12.896;2022-07-01T14:12:55;14.10;;;4.72;;
20784;SDS011;10552;45.818;12.896;2022-07-01T14:15:40;11.75;;;4.00;;
20784;SDS011;10552;45.818;12.896;2022-07-01T14:18:29;9.02;;;3.67;;
20784;SDS011;10552;45.818;12.896;2022-07-01T14:21:13;13.50;;;4.40;;
20784;SDS011;10552;45.818;12.896;2022-07-01T14:23:57;9.52;;;4.40;;
20784;SDS011;10552;45.818;12.896;2022-07-01T14:26:40;11.15;;;4.47;;
20784;SDS011;10552;45.818;12.896;2022-07-01T14:29:33;13.43;;;4.60;;
20784;SDS011;10552;45.818;12.896;2022-07-01T14:32:16;11.68;;;3.87;;
20784;SDS011;10552;45.818;12.896;2022-07-01T14:35:00;12.02;;;4.40;;
20784;SDS011;10552;45.818;12.896;2022-07-01T14:37:43;10.43;;;3.87;;
20784;SDS011;10552;45.818;12.896;2022-07-01T14:40:31;9.60;;;3.60;;
20784;SDS011;10552;45.818;12.896;2022-07-01T14:43:23;9.15;;;3.53;;
20784;SDS011;10552;45.818;12.896;2022-07-01T14:46:17;9.60;;;3.78;;
20784;SDS011;10552;45.818;12.896;2022-07-01T14:49:00;12.82;;;4.03;;
20784;SDS011;10552;45.818;12.896;2022-07-01T14:51:51;9.43;;;3.90;;
20784;SDS011;10552;45.818;12.896;2022-07-01T14:54:36;11.80;;;4.40;;
20784;SDS011;10552;45.818;12.896;2022-07-01T14:57:19;12.60;;;4.03;;
20784;SDS011;10552;45.818;12.896;2022-07-01T15:00:05;14.50;;;4.47;;
20784;SDS011;10552;45.818;12.896;2022-07-01T15:02:51;12.85;;;4.50;;
20784;SDS011;10552;45.818;12.896;2022-07-01T15:05:34;13.38;;;3.97;;
20784;SDS011;10552;45.818;12.896;2022-07-01T15:08:17;10.25;;;3.83;;
20784;SDS011;10552;45.818;12.896;2022-07-01T15:11:01;14.95;;;4.37;;
20784;SDS011;10552;45.818;12.896;2022-07-01T15:13:51;15.10;;;4.97;;
20784;SDS011;10552;45.818;12.896;2022-07-01T15:16:34;12.32;;;4.37;;
20784;SDS011;10552;45.818;12.896;2022-07-01T15:19:18;17.70;;;5.12;;
20784;SDS011;10552;45.818;12.896;2022-07-01T15:22:01;18.30;;;5.60;;
20784;SDS011;10552;45.818;12.896;2022-07-01T15:24:45;14.02;;;5.00;;
20784;SDS011;10552;45.818;12.896;2022-07-01T15:27:29;16.10;;;5.68;;
20784;SDS011;10552;45.818;12.896;2022-07-01T15:30:14;17.15;;;5.07;;
20784;SDS011;10552;45.818;12.896;2022-07-01T15:32:58;18.23;;;5.70;;
20784;SDS011;10552;45.818;12.896;2022-07-01T15:35:42;20.70;;;6.15;;
20784;SDS011;10552;45.818;12.896;2022-07-01T15:38:25;18.90;;;6.22;;
20784;SDS011;10552;45.818;12.896;2022-07-01T15:41:14;24.15;;;7.07;;
20784;SDS011;10552;45.818;12.896;2022-07-01T15:43:58;19.33;;;6.20;;
20784;SDS011;10552;45.818;12.896;2022-07-01T15:46:48;18.33;;;6.25;;
20784;SDS011;10552;45.818;12.896;2022-07-01T15:49:31;24.58;;;6.72;;
20784;SDS011;10552;45.818;12.896;2022-07-01T15:52:15;25.00;;;6.87;;
20784;SDS011;10552;45.818;12.896;2022-07-01T15:54:59;22.52;;;6.85;;
20784;SDS011;10552;45.818;12.896;2022-07-01T15:57:43;23.83;;;6.97;;
20784;SDS011;10552;45.818;12.896;2022-07-01T16:00:26;21.60;;;6.80;;
20784;SDS011;10552;45.818;12.896;2022-07-01T16:03:17;24.12;;;7.30;;
20784;SDS011;10552;45.818;12.896;2022-07-01T16:06:03;22.30;;;7.28;;
20784;SDS011;10552;45.818;12.896;2022-07-01T16:08:47;24.83;;;6.93;;